sensor_id;sensor_type;location;lat;lon;timestamp;temperature;humidity
29093;DHT22;16167;48.768;14.984;2023-05-02T00:01:45;8.60;10.60
29093;DHT22;16167;48.768;14.984;2023-05-02T00:04:15;8.70;1.00
29093;DHT22;16167;48.768;14.984;2023-05-02T00:06:43;8.70;1.00
29093;DHT22;16167;48.768;14.984;2023-05-02T00:09:12;8.70;1.00
29093;DHT22;16167;48.768;14.984;2023-05-02T00:11:41;8.70;1.00
29093;DHT22;16167;48.768;14.984;2023-05-02T00:14:09;8.60;5.90
29093;DHT22;16167;48.768;14.984;2023-05-02T00:16:37;8.60;2.10
29093;DHT22;16167;48.768;14.984;2023-05-02T00:19:05;8.60;7.50
29093;DHT22;16167;48.768;14.984;2023-05-02T00:21:34;8.60;6.30
29093;DHT22;16167;48.768;14.984;2023-05-02T00:24:02;8.60;1.00
29093;DHT22;16167;48.768;14.984;2023-05-02T00:26:30;8.60;3.70
29093;DHT22;16167;48.768;14.984;2023-05-02T00:28:58;8.60;5.00
29093;DHT22;16167;48.768;14.984;2023-05-02T00:31:27;8.70;1.00
29093;DHT22;16167;48.768;14.984;2023-05-02T00:33:55;8.70;1.00
29093;DHT22;16167;48.768;14.984;2023-05-02T00:36:23;8.70;1.10
29093;DHT22;16167;48.768;14.984;2023-05-02T00:38:53;8.70;1.00
29093;DHT22;16167;48.768;14.984;2023-05-02T00:41:21;8.70;9.50
29093;DHT22;16167;48.768;14.984;2023-05-02T00:43:49;8.70;8.20
29093;DHT22;16167;48.768;14.984;2023-05-02T00:46:17;8.70;18.70
29093;DHT22;16167;48.768;14.984;2023-05-02T00:48:45;8.80;14.70
29093;DHT22;16167;48.768;14.984;2023-05-02T00:51:13;8.80;8.40
29093;DHT22;16167;48.768;14.984;2023-05-02T00:53:40;8.80;16.50
29093;DHT22;16167;48.768;14.984;2023-05-02T00:56:10;8.90;15.10
29093;DHT22;16167;48.768;14.984;2023-05-02T00:58:38;9.00;26.20
29093;DHT22;16167;48.768;14.984;2023-05-02T01:03:54;9.00;12.80
29093;DHT22;16167;48.768;14.984;2023-05-02T01:06:30;9.00;32.00
29093;DHT22;16167;48.768;14.984;2023-05-02T01:09:06;9.10;23.50
29093;DHT22;16167;48.768;14.984;2023-05-02T01:11:43;9.10;13.00
29093;DHT22;16167;48.768;14.984;2023-05-02T01:14:11;9.20;16.70
29093;DHT22;16167;48.768;14.984;2023-05-02T01:16:41;9.20;17.40
29093;DHT22;16167;48.768;14.984;2023-05-02T01:19:11;9.20;13.70
29093;DHT22;16167;48.768;14.984;2023-05-02T01:21:44;9.20;13.80
29093;DHT22;16167;48.768;14.984;2023-05-02T01:24:13;9.20;16.60
29093;DHT22;16167;48.768;14.984;2023-05-02T01:26:49;9.30;14.20
29093;DHT22;16167;48.768;14.984;2023-05-02T01:29:19;9.30;11.80
29093;DHT22;16167;48.768;14.984;2023-05-02T01:31:49;9.30;7.60
29093;DHT22;16167;48.768;14.984;2023-05-02T01:34:18;9.30;7.80
29093;DHT22;16167;48.768;14.984;2023-05-02T01:36:47;9.30;8.90
29093;DHT22;16167;48.768;14.984;2023-05-02T01:39:17;9.30;3.90
29093;DHT22;16167;48.768;14.984;2023-05-02T01:41:46;9.30;10.30
29093;DHT22;16167;48.768;14.984;2023-05-02T01:44:15;9.30;13.90
29093;DHT22;16167;48.768;14.984;2023-05-02T01:46:46;9.30;17.90
29093;DHT22;16167;48.768;14.984;2023-05-02T01:49:15;9.30;25.00
29093;DHT22;16167;48.768;14.984;2023-05-02T01:51:48;9.30;19.80
29093;DHT22;16167;48.768;14.984;2023-05-02T01:54:17;9.30;17.30
29093;DHT22;16167;48.768;14.984;2023-05-02T01:56:46;9.30;37.70
29093;DHT22;16167;48.768;14.984;2023-05-02T01:59:16;9.30;23.80
29093;DHT22;16167;48.768;14.984;2023-05-02T02:01:46;9.30;16.60
29093;DHT22;16167;48.768;14.984;2023-05-02T02:04:15;9.30;12.10
29093;DHT22;16167;48.768;14.984;2023-05-02T02:06:44;9.30;21.70
29093;DHT22;16167;48.768;14.984;2023-05-02T02:09:13;9.30;17.50
29093;DHT22;16167;48.768;14.984;2023-05-02T02:11:42;9.30;19.60
29093;DHT22;16167;48.768;14.984;2023-05-02T02:14:11;9.20;23.60
29093;DHT22;16167;48.768;14.984;2023-05-02T02:16:42;9.30;36.40
29093;DHT22;16167;48.768;14.984;2023-05-02T02:19:12;9.30;27.80
29093;DHT22;16167;48.768;14.984;2023-05-02T02:21:41;9.20;32.10
29093;DHT22;16167;48.768;14.984;2023-05-02T02:24:09;9.20;34.70
29093;DHT22;16167;48.768;14.984;2023-05-02T02:26:38;9.20;26.80
29093;DHT22;16167;48.768;14.984;2023-05-02T02:29:06;9.20;28.80
29093;DHT22;16167;48.768;14.984;2023-05-02T02:31:34;9.20;32.10
29093;DHT22;16167;48.768;14.984;2023-05-02T02:34:04;9.20;28.50
29093;DHT22;16167;48.768;14.984;2023-05-02T02:36:35;9.20;37.10
29093;DHT22;16167;48.768;14.984;2023-05-02T02:39:10;9.30;32.90
29093;DHT22;16167;48.768;14.984;2023-05-02T02:41:41;9.20;21.90
29093;DHT22;16167;48.768;14.984;2023-05-02T02:44:14;9.20;21.70
29093;DHT22;16167;48.768;14.984;2023-05-02T02:46:45;9.20;29.00
29093;DHT22;16167;48.768;14.984;2023-05-02T02:49:17;9.20;23.30
29093;DHT22;16167;48.768;14.984;2023-05-02T02:51:55;9.20;26.00
29093;DHT22;16167;48.768;14.984;2023-05-02T02:54:28;9.10;27.90
29093;DHT22;16167;48.768;14.984;2023-05-02T02:57:00;9.20;27.50
29093;DHT22;16167;48.768;14.984;2023-05-02T02:59:30;9.20;47.00
29093;DHT22;16167;48.768;14.984;2023-05-02T03:02:01;9.20;34.70
29093;DHT22;16167;48.768;14.984;2023-05-02T03:04:30;9.20;35.80
29093;DHT22;16167;48.768;14.984;2023-05-02T03:07:00;9.20;36.20
29093;DHT22;16167;48.768;14.984;2023-05-02T03:09:39;9.20;22.80
29093;DHT22;16167;48.768;14.984;2023-05-02T03:12:07;9.20;26.20
29093;DHT22;16167;48.768;14.984;2023-05-02T03:14:34;9.30;30.90
29093;DHT22;16167;48.768;14.984;2023-05-02T03:17:03;9.30;36.40
29093;DHT22;16167;48.768;14.984;2023-05-02T03:19:31;9.30;30.90
29093;DHT22;16167;48.768;14.984;2023-05-02T03:21:59;9.30;26.70
29093;DHT22;16167;48.768;14.984;2023-05-02T03:24:28;9.20;23.80
29093;DHT22;16167;48.768;14.984;2023-05-02T03:26:56;9.20;17.70
29093;DHT22;16167;48.768;14.984;2023-05-02T03:29:25;9.20;19.70
29093;DHT22;16167;48.768;14.984;2023-05-02T03:31:54;9.20;19.80
29093;DHT22;16167;48.768;14.984;2023-05-02T03:34:22;9.20;20.40
29093;DHT22;16167;48.768;14.984;2023-05-02T03:36:50;9.20;22.40
29093;DHT22;16167;48.768;14.984;2023-05-02T03:39:18;9.10;24.00
29093;DHT22;16167;48.768;14.984;2023-05-02T03:41:47;9.20;23.50
29093;DHT22;16167;48.768;14.984;2023-05-02T03:44:15;9.10;25.80
29093;DHT22;16167;48.768;14.984;2023-05-02T03:46:42;9.20;29.60
29093;DHT22;16167;48.768;14.984;2023-05-02T03:49:11;9.20;29.40
29093;DHT22;16167;48.768;14.984;2023-05-02T03:51:39;9.30;28.10
29093;DHT22;16167;48.768;14.984;2023-05-02T03:54:07;9.30;32.70
29093;DHT22;16167;48.768;14.984;2023-05-02T03:56:35;9.30;25.60
29093;DHT22;16167;48.768;14.984;2023-05-02T03:59:06;9.30;29.00
29093;DHT22;16167;48.768;14.984;2023-05-02T04:01:34;9.30;27.60
29093;DHT22;16167;48.768;14.984;2023-05-02T04:04:02;9.40;29.30
29093;DHT22;16167;48.768;14.984;2023-05-02T04:06:30;9.40;31.90
29093;DHT22;16167;48.768;14.984;2023-05-02T04:08:58;9.30;31.10
29093;DHT22;16167;48.768;14.984;2023-05-02T04:11:26;9.30;31.20
29093;DHT22;16167;48.768;14.984;2023-05-02T04:13:54;9.30;36.00
29093;DHT22;16167;48.768;14.984;2023-05-02T04:16:24;9.30;34.50
29093;DHT22;16167;48.768;14.984;2023-05-02T04:18:51;9.30;56.30
29093;DHT22;16167;48.768;14.984;2023-05-02T04:21:19;9.30;44.60
29093;DHT22;16167;48.768;14.984;2023-05-02T04:23:47;9.40;38.00
29093;DHT22;16167;48.768;14.984;2023-05-02T04:26:15;9.50;51.40
29093;DHT22;16167;48.768;14.984;2023-05-02T04:28:43;9.60;52.60
29093;DHT22;16167;48.768;14.984;2023-05-02T04:31:11;9.60;54.10
29093;DHT22;16167;48.768;14.984;2023-05-02T04:33:40;9.70;58.50
29093;DHT22;16167;48.768;14.984;2023-05-02T04:36:08;9.70;56.80
29093;DHT22;16167;48.768;14.984;2023-05-02T04:38:36;9.80;52.90
29093;DHT22;16167;48.768;14.984;2023-05-02T04:41:04;9.80;52.50
29093;DHT22;16167;48.768;14.984;2023-05-02T04:43:35;9.90;53.50
29093;DHT22;16167;48.768;14.984;2023-05-02T04:46:03;10.00;49.70
29093;DHT22;16167;48.768;14.984;2023-05-02T04:48:31;10.00;44.40
29093;DHT22;16167;48.768;14.984;2023-05-02T04:51:00;10.10;41.70
29093;DHT22;16167;48.768;14.984;2023-05-02T04:53:28;10.20;38.40
29093;DHT22;16167;48.768;14.984;2023-05-02T04:55:56;10.20;35.50
29093;DHT22;16167;48.768;14.984;2023-05-02T04:58:24;10.30;34.30
29093;DHT22;16167;48.768;14.984;2023-05-02T05:00:52;10.30;37.80
29093;DHT22;16167;48.768;14.984;2023-05-02T05:03:20;10.30;39.80
29093;DHT22;16167;48.768;14.984;2023-05-02T05:05:48;10.40;39.60
29093;DHT22;16167;48.768;14.984;2023-05-02T05:08:18;10.50;43.80
29093;DHT22;16167;48.768;14.984;2023-05-02T05:10:45;10.50;33.00
29093;DHT22;16167;48.768;14.984;2023-05-02T05:13:13;10.60;27.90
29093;DHT22;16167;48.768;14.984;2023-05-02T05:15:41;10.60;24.70
29093;DHT22;16167;48.768;14.984;2023-05-02T05:18:10;10.60;28.50
29093;DHT22;16167;48.768;14.984;2023-05-02T05:20:38;10.70;27.40
29093;DHT22;16167;48.768;14.984;2023-05-02T05:23:06;10.70;21.40
29093;DHT22;16167;48.768;14.984;2023-05-02T05:25:35;10.70;24.60
29093;DHT22;16167;48.768;14.984;2023-05-02T05:28:03;10.80;20.40
29093;DHT22;16167;48.768;14.984;2023-05-02T05:30:31;10.90;21.40
29093;DHT22;16167;48.768;14.984;2023-05-02T05:32:59;11.00;21.70
29093;DHT22;16167;48.768;14.984;2023-05-02T05:35:27;11.00;22.30
29093;DHT22;16167;48.768;14.984;2023-05-02T05:37:54;11.10;19.30
29093;DHT22;16167;48.768;14.984;2023-05-02T05:40:22;11.10;22.50
29093;DHT22;16167;48.768;14.984;2023-05-02T05:42:52;11.10;26.50
29093;DHT22;16167;48.768;14.984;2023-05-02T05:45:19;11.10;29.30
29093;DHT22;16167;48.768;14.984;2023-05-02T05:47:48;11.20;26.00
29093;DHT22;16167;48.768;14.984;2023-05-02T05:50:16;11.20;25.20
29093;DHT22;16167;48.768;14.984;2023-05-02T05:52:44;11.20;23.40
29093;DHT22;16167;48.768;14.984;2023-05-02T05:55:11;11.30;23.10
29093;DHT22;16167;48.768;14.984;2023-05-02T05:57:39;11.40;21.20
29093;DHT22;16167;48.768;14.984;2023-05-02T06:00:10;11.50;20.40
29093;DHT22;16167;48.768;14.984;2023-05-02T06:02:38;11.50;18.60
29093;DHT22;16167;48.768;14.984;2023-05-02T06:05:06;11.50;19.90
29093;DHT22;16167;48.768;14.984;2023-05-02T06:07:34;11.60;21.40
29093;DHT22;16167;48.768;14.984;2023-05-02T06:10:02;11.60;23.10
29093;DHT22;16167;48.768;14.984;2023-05-02T06:12:30;11.60;18.60
29093;DHT22;16167;48.768;14.984;2023-05-02T06:14:58;11.60;22.20
29093;DHT22;16167;48.768;14.984;2023-05-02T06:17:27;11.70;20.70
29093;DHT22;16167;48.768;14.984;2023-05-02T06:19:55;11.80;19.80
29093;DHT22;16167;48.768;14.984;2023-05-02T06:22:23;11.80;19.10
29093;DHT22;16167;48.768;14.984;2023-05-02T06:24:51;11.90;21.20
29093;DHT22;16167;48.768;14.984;2023-05-02T06:27:19;11.90;17.80
29093;DHT22;16167;48.768;14.984;2023-05-02T06:29:49;11.90;17.00
29093;DHT22;16167;48.768;14.984;2023-05-02T06:32:17;11.90;18.20
29093;DHT22;16167;48.768;14.984;2023-05-02T06:34:46;12.00;19.40
29093;DHT22;16167;48.768;14.984;2023-05-02T06:37:14;12.00;21.50
29093;DHT22;16167;48.768;14.984;2023-05-02T06:39:42;12.00;19.00
29093;DHT22;16167;48.768;14.984;2023-05-02T06:42:10;12.10;18.80
29093;DHT22;16167;48.768;14.984;2023-05-02T06:44:38;12.10;17.60
29093;DHT22;16167;48.768;14.984;2023-05-02T06:47:06;12.20;17.60
29093;DHT22;16167;48.768;14.984;2023-05-02T06:49:34;12.20;18.00
29093;DHT22;16167;48.768;14.984;2023-05-02T06:52:03;12.30;17.80
29093;DHT22;16167;48.768;14.984;2023-05-02T06:54:31;12.40;17.40
29093;DHT22;16167;48.768;14.984;2023-05-02T06:56:59;12.50;19.60
29093;DHT22;16167;48.768;14.984;2023-05-02T06:59:27;12.60;18.80
29093;DHT22;16167;48.768;14.984;2023-05-02T07:01:55;12.70;18.00
29093;DHT22;16167;48.768;14.984;2023-05-02T07:04:23;12.70;18.40
29093;DHT22;16167;48.768;14.984;2023-05-02T07:06:51;12.80;24.90
29093;DHT22;16167;48.768;14.984;2023-05-02T07:09:21;12.90;21.80
29093;DHT22;16167;48.768;14.984;2023-05-02T07:11:49;12.90;23.10
29093;DHT22;16167;48.768;14.984;2023-05-02T07:14:17;13.00;23.40
29093;DHT22;16167;48.768;14.984;2023-05-02T07:16:45;13.10;22.80
29093;DHT22;16167;48.768;14.984;2023-05-02T07:19:13;13.30;18.90
29093;DHT22;16167;48.768;14.984;2023-05-02T07:21:40;13.40;17.30
29093;DHT22;16167;48.768;14.984;2023-05-02T07:24:08;13.50;30.70
29093;DHT22;16167;48.768;14.984;2023-05-02T07:26:38;13.70;28.50
29093;DHT22;16167;48.768;14.984;2023-05-02T07:29:06;13.90;28.00
29093;DHT22;16167;48.768;14.984;2023-05-02T07:31:35;14.10;23.90
29093;DHT22;16167;48.768;14.984;2023-05-02T07:34:03;14.30;34.80
29093;DHT22;16167;48.768;14.984;2023-05-02T07:36:31;14.40;40.20
29093;DHT22;16167;48.768;14.984;2023-05-02T07:38:59;14.60;48.90
29093;DHT22;16167;48.768;14.984;2023-05-02T07:41:27;14.70;54.50
29093;DHT22;16167;48.768;14.984;2023-05-02T07:43:56;14.90;53.50
29093;DHT22;16167;48.768;14.984;2023-05-02T07:46:24;15.00;51.20
29093;DHT22;16167;48.768;14.984;2023-05-02T07:48:52;15.30;61.40
29093;DHT22;16167;48.768;14.984;2023-05-02T07:51:20;15.50;59.00
29093;DHT22;16167;48.768;14.984;2023-05-02T07:53:49;15.50;60.50
29093;DHT22;16167;48.768;14.984;2023-05-02T07:56:18;15.70;58.70
29093;DHT22;16167;48.768;14.984;2023-05-02T07:58:46;15.80;59.50
29093;DHT22;16167;48.768;14.984;2023-05-02T08:01:17;15.80;59.40
29093;DHT22;16167;48.768;14.984;2023-05-02T08:03:44;15.90;60.30
29093;DHT22;16167;48.768;14.984;2023-05-02T08:06:14;16.00;58.40
29093;DHT22;16167;48.768;14.984;2023-05-02T08:08:42;16.00;61.50
29093;DHT22;16167;48.768;14.984;2023-05-02T08:11:10;16.00;59.90
29093;DHT22;16167;48.768;14.984;2023-05-02T08:13:38;16.00;63.40
29093;DHT22;16167;48.768;14.984;2023-05-02T08:16:06;16.00;63.50
29093;DHT22;16167;48.768;14.984;2023-05-02T08:18:35;15.90;64.60
29093;DHT22;16167;48.768;14.984;2023-05-02T08:21:03;15.90;64.30
29093;DHT22;16167;48.768;14.984;2023-05-02T08:23:31;15.80;61.30
29093;DHT22;16167;48.768;14.984;2023-05-02T08:25:59;15.80;58.70
29093;DHT22;16167;48.768;14.984;2023-05-02T08:28:27;15.90;58.40
29093;DHT22;16167;48.768;14.984;2023-05-02T08:30:55;16.10;56.80
29093;DHT22;16167;48.768;14.984;2023-05-02T08:33:23;16.20;56.20
29093;DHT22;16167;48.768;14.984;2023-05-02T08:35:53;16.30;56.20
29093;DHT22;16167;48.768;14.984;2023-05-02T08:38:21;16.20;53.60
29093;DHT22;16167;48.768;14.984;2023-05-02T08:40:49;16.30;55.60
29093;DHT22;16167;48.768;14.984;2023-05-02T08:43:17;16.30;53.80
29093;DHT22;16167;48.768;14.984;2023-05-02T08:45:44;16.30;54.40
29093;DHT22;16167;48.768;14.984;2023-05-02T08:48:12;16.30;55.30
29093;DHT22;16167;48.768;14.984;2023-05-02T08:50:43;16.30;54.20
29093;DHT22;16167;48.768;14.984;2023-05-02T08:53:15;16.40;54.40
29093;DHT22;16167;48.768;14.984;2023-05-02T08:55:44;16.30;54.90
29093;DHT22;16167;48.768;14.984;2023-05-02T08:58:12;16.30;54.00
29093;DHT22;16167;48.768;14.984;2023-05-02T09:00:42;16.30;55.10
29093;DHT22;16167;48.768;14.984;2023-05-02T09:03:14;16.30;53.50
29093;DHT22;16167;48.768;14.984;2023-05-02T09:05:50;16.40;53.80
29093;DHT22;16167;48.768;14.984;2023-05-02T09:08:22;16.50;54.30
29093;DHT22;16167;48.768;14.984;2023-05-02T09:10:50;16.60;54.10
29093;DHT22;16167;48.768;14.984;2023-05-02T09:13:31;16.70;54.90
29093;DHT22;16167;48.768;14.984;2023-05-02T09:16:00;16.90;55.50
29093;DHT22;16167;48.768;14.984;2023-05-02T09:18:29;16.90;52.80
29093;DHT22;16167;48.768;14.984;2023-05-02T09:20:57;17.00;53.10
29093;DHT22;16167;48.768;14.984;2023-05-02T09:23:34;17.00;52.60
29093;DHT22;16167;48.768;14.984;2023-05-02T09:26:12;17.00;52.10
29093;DHT22;16167;48.768;14.984;2023-05-02T09:28:41;17.00;53.40
29093;DHT22;16167;48.768;14.984;2023-05-02T09:31:10;17.10;51.50
29093;DHT22;16167;48.768;14.984;2023-05-02T09:33:38;17.10;52.30
29093;DHT22;16167;48.768;14.984;2023-05-02T09:36:07;17.30;53.00
29093;DHT22;16167;48.768;14.984;2023-05-02T09:38:37;17.20;51.50
29093;DHT22;16167;48.768;14.984;2023-05-02T09:41:05;17.30;51.80
29093;DHT22;16167;48.768;14.984;2023-05-02T09:43:33;17.40;52.60
29093;DHT22;16167;48.768;14.984;2023-05-02T09:46:01;17.50;52.60
29093;DHT22;16167;48.768;14.984;2023-05-02T09:48:30;17.60;51.10
29093;DHT22;16167;48.768;14.984;2023-05-02T09:50:58;17.70;51.80
29093;DHT22;16167;48.768;14.984;2023-05-02T09:53:27;17.80;52.20
29093;DHT22;16167;48.768;14.984;2023-05-02T09:55:59;17.90;50.90
29093;DHT22;16167;48.768;14.984;2023-05-02T09:58:27;17.60;47.80
29093;DHT22;16167;48.768;14.984;2023-05-02T10:00:57;17.80;48.00
29093;DHT22;16167;48.768;14.984;2023-05-02T10:03:25;17.80;51.00
29093;DHT22;16167;48.768;14.984;2023-05-02T10:05:54;18.00;52.20
29093;DHT22;16167;48.768;14.984;2023-05-02T10:08:23;18.00;50.00
29093;DHT22;16167;48.768;14.984;2023-05-02T10:10:52;18.20;48.40
29093;DHT22;16167;48.768;14.984;2023-05-02T10:13:22;18.20;46.90
29093;DHT22;16167;48.768;14.984;2023-05-02T10:15:57;18.30;48.90
29093;DHT22;16167;48.768;14.984;2023-05-02T10:18:26;18.40;48.00
29093;DHT22;16167;48.768;14.984;2023-05-02T10:20:55;18.60;46.00
29093;DHT22;16167;48.768;14.984;2023-05-02T10:23:27;18.60;46.80
29093;DHT22;16167;48.768;14.984;2023-05-02T10:25:56;18.70;47.20
29093;DHT22;16167;48.768;14.984;2023-05-02T10:28:27;18.80;48.10
29093;DHT22;16167;48.768;14.984;2023-05-02T10:30:56;19.00;46.40
29093;DHT22;16167;48.768;14.984;2023-05-02T10:33:25;19.10;44.10
29093;DHT22;16167;48.768;14.984;2023-05-02T10:35:53;19.20;45.40
29093;DHT22;16167;48.768;14.984;2023-05-02T10:38:21;19.20;43.30
29093;DHT22;16167;48.768;14.984;2023-05-02T10:40:51;19.20;42.50
29093;DHT22;16167;48.768;14.984;2023-05-02T10:43:25;19.20;41.60
29093;DHT22;16167;48.768;14.984;2023-05-02T10:45:55;19.30;44.50
29093;DHT22;16167;48.768;14.984;2023-05-02T10:48:23;19.30;44.40
29093;DHT22;16167;48.768;14.984;2023-05-02T10:50:53;19.10;39.70
29093;DHT22;16167;48.768;14.984;2023-05-02T10:53:24;19.10;41.70
29093;DHT22;16167;48.768;14.984;2023-05-02T10:58:48;19.10;45.20
29093;DHT22;16167;48.768;14.984;2023-05-02T11:01:33;18.70;43.20
29093;DHT22;16167;48.768;14.984;2023-05-02T11:04:04;18.90;47.50
29093;DHT22;16167;48.768;14.984;2023-05-02T11:06:32;18.90;45.00
29093;DHT22;16167;48.768;14.984;2023-05-02T11:11:46;19.10;46.80
29093;DHT22;16167;48.768;14.984;2023-05-02T11:17:09;19.30;45.80
29093;DHT22;16167;48.768;14.984;2023-05-02T11:22:32;19.40;45.80
29093;DHT22;16167;48.768;14.984;2023-05-02T11:25:00;19.40;45.50
29093;DHT22;16167;48.768;14.984;2023-05-02T11:27:37;19.30;44.70
29093;DHT22;16167;48.768;14.984;2023-05-02T11:30:09;19.30;45.90
29093;DHT22;16167;48.768;14.984;2023-05-02T11:35:26;19.50;48.30
29093;DHT22;16167;48.768;14.984;2023-05-02T11:37:57;19.50;48.50
29093;DHT22;16167;48.768;14.984;2023-05-02T11:40:26;19.50;46.90
29093;DHT22;16167;48.768;14.984;2023-05-02T11:42:55;19.30;47.00
29093;DHT22;16167;48.768;14.984;2023-05-02T11:45:31;19.20;44.90
29093;DHT22;16167;48.768;14.984;2023-05-02T11:47:59;19.10;46.30
29093;DHT22;16167;48.768;14.984;2023-05-02T11:50:28;18.90;46.30
29093;DHT22;16167;48.768;14.984;2023-05-02T11:52:57;18.90;47.30
29093;DHT22;16167;48.768;14.984;2023-05-02T11:55:25;18.90;47.10
29093;DHT22;16167;48.768;14.984;2023-05-02T11:57:53;18.80;47.50
29093;DHT22;16167;48.768;14.984;2023-05-02T12:00:25;18.80;47.50
29093;DHT22;16167;48.768;14.984;2023-05-02T12:02:53;18.80;46.80
29093;DHT22;16167;48.768;14.984;2023-05-02T12:05:26;18.70;48.50
29093;DHT22;16167;48.768;14.984;2023-05-02T12:07:56;18.70;48.10
29093;DHT22;16167;48.768;14.984;2023-05-02T12:10:24;18.70;49.60
29093;DHT22;16167;48.768;14.984;2023-05-02T12:13:04;18.60;48.00
29093;DHT22;16167;48.768;14.984;2023-05-02T12:15:35;18.50;46.90
29093;DHT22;16167;48.768;14.984;2023-05-02T12:18:03;18.40;48.20
29093;DHT22;16167;48.768;14.984;2023-05-02T12:20:31;18.40;49.10
29093;DHT22;16167;48.768;14.984;2023-05-02T12:23:01;18.40;49.20
29093;DHT22;16167;48.768;14.984;2023-05-02T12:25:35;18.40;49.80
29093;DHT22;16167;48.768;14.984;2023-05-02T12:28:03;18.20;47.80
29093;DHT22;16167;48.768;14.984;2023-05-02T12:30:31;18.10;49.40
29093;DHT22;16167;48.768;14.984;2023-05-02T12:33:00;18.00;49.40
29093;DHT22;16167;48.768;14.984;2023-05-02T12:35:28;17.90;49.10
29093;DHT22;16167;48.768;14.984;2023-05-02T12:38:08;17.90;49.40
29093;DHT22;16167;48.768;14.984;2023-05-02T12:40:36;17.80;51.40
29093;DHT22;16167;48.768;14.984;2023-05-02T12:43:05;17.90;51.00
29093;DHT22;16167;48.768;14.984;2023-05-02T12:45:36;17.90;50.00
29093;DHT22;16167;48.768;14.984;2023-05-02T12:48:17;18.00;50.50
29093;DHT22;16167;48.768;14.984;2023-05-02T12:50:45;18.10;49.20
29093;DHT22;16167;48.768;14.984;2023-05-02T12:53:14;18.10;52.50
29093;DHT22;16167;48.768;14.984;2023-05-02T12:55:42;18.00;50.20
29093;DHT22;16167;48.768;14.984;2023-05-02T12:58:10;18.10;51.10
29093;DHT22;16167;48.768;14.984;2023-05-02T13:00:40;18.10;48.40
29093;DHT22;16167;48.768;14.984;2023-05-02T13:03:11;18.00;49.40
29093;DHT22;16167;48.768;14.984;2023-05-02T13:05:39;18.00;48.50
29093;DHT22;16167;48.768;14.984;2023-05-02T13:08:06;18.00;49.80
29093;DHT22;16167;48.768;14.984;2023-05-02T13:10:36;18.00;47.80
29093;DHT22;16167;48.768;14.984;2023-05-02T13:13:04;17.90;50.80
29093;DHT22;16167;48.768;14.984;2023-05-02T13:15:32;17.80;48.70
29093;DHT22;16167;48.768;14.984;2023-05-02T13:18:00;17.80;48.10
29093;DHT22;16167;48.768;14.984;2023-05-02T13:20:29;17.80;49.00
29093;DHT22;16167;48.768;14.984;2023-05-02T13:22:56;17.70;49.20
29093;DHT22;16167;48.768;14.984;2023-05-02T13:25:24;17.60;50.40
29093;DHT22;16167;48.768;14.984;2023-05-02T13:27:54;17.50;51.60
29093;DHT22;16167;48.768;14.984;2023-05-02T13:30:22;17.40;51.40
29093;DHT22;16167;48.768;14.984;2023-05-02T13:32:50;17.40;52.10
29093;DHT22;16167;48.768;14.984;2023-05-02T13:35:18;17.30;53.10
29093;DHT22;16167;48.768;14.984;2023-05-02T13:37:46;17.20;51.20
29093;DHT22;16167;48.768;14.984;2023-05-02T13:40:14;17.20;54.30
29093;DHT22;16167;48.768;14.984;2023-05-02T13:42:43;17.20;51.60
29093;DHT22;16167;48.768;14.984;2023-05-02T13:45:12;17.10;53.60
29093;DHT22;16167;48.768;14.984;2023-05-02T13:47:40;17.10;51.00
29093;DHT22;16167;48.768;14.984;2023-05-02T13:50:08;17.10;53.30
29093;DHT22;16167;48.768;14.984;2023-05-02T13:52:36;17.10;53.90
29093;DHT22;16167;48.768;14.984;2023-05-02T13:55:04;17.00;51.30
29093;DHT22;16167;48.768;14.984;2023-05-02T13:57:32;17.10;52.60
29093;DHT22;16167;48.768;14.984;2023-05-02T14:00:00;17.10;51.40
29093;DHT22;16167;48.768;14.984;2023-05-02T14:02:31;17.00;51.90
29093;DHT22;16167;48.768;14.984;2023-05-02T14:04:59;17.00;52.10
29093;DHT22;16167;48.768;14.984;2023-05-02T14:07:27;16.90;51.20
29093;DHT22;16167;48.768;14.984;2023-05-02T14:09:56;16.90;52.40
29093;DHT22;16167;48.768;14.984;2023-05-02T14:12:24;16.80;51.20
29093;DHT22;16167;48.768;14.984;2023-05-02T14:14:52;16.70;50.10
29093;DHT22;16167;48.768;14.984;2023-05-02T14:17:19;16.70;52.60
29093;DHT22;16167;48.768;14.984;2023-05-02T14:19:52;16.70;50.70
29093;DHT22;16167;48.768;14.984;2023-05-02T14:22:20;16.70;50.70
29093;DHT22;16167;48.768;14.984;2023-05-02T14:24:47;16.70;50.70
29093;DHT22;16167;48.768;14.984;2023-05-02T14:27:15;16.60;51.70
29093;DHT22;16167;48.768;14.984;2023-05-02T14:29:44;16.60;52.20
29093;DHT22;16167;48.768;14.984;2023-05-02T14:32:12;16.60;53.30
29093;DHT22;16167;48.768;14.984;2023-05-02T14:34:40;16.60;53.80
29093;DHT22;16167;48.768;14.984;2023-05-02T14:37:09;16.60;53.00
29093;DHT22;16167;48.768;14.984;2023-05-02T14:39:37;16.60;54.00
29093;DHT22;16167;48.768;14.984;2023-05-02T14:42:06;16.50;50.20
29093;DHT22;16167;48.768;14.984;2023-05-02T14:44:33;16.40;52.70
29093;DHT22;16167;48.768;14.984;2023-05-02T14:47:01;16.40;52.50
29093;DHT22;16167;48.768;14.984;2023-05-02T14:49:30;16.30;53.20
29093;DHT22;16167;48.768;14.984;2023-05-02T14:51:57;16.30;50.70
29093;DHT22;16167;48.768;14.984;2023-05-02T14:54:27;16.20;51.30
29093;DHT22;16167;48.768;14.984;2023-05-02T14:56:56;16.20;52.00
29093;DHT22;16167;48.768;14.984;2023-05-02T14:59:27;16.20;51.10
29093;DHT22;16167;48.768;14.984;2023-05-02T15:01:55;16.10;51.00
29093;DHT22;16167;48.768;14.984;2023-05-02T15:04:23;16.10;51.90
29093;DHT22;16167;48.768;14.984;2023-05-02T15:06:53;16.10;49.60
29093;DHT22;16167;48.768;14.984;2023-05-02T15:09:22;16.10;49.50
29093;DHT22;16167;48.768;14.984;2023-05-02T15:11:53;16.10;51.10
29093;DHT22;16167;48.768;14.984;2023-05-02T15:14:21;16.10;51.40
29093;DHT22;16167;48.768;14.984;2023-05-02T15:16:49;16.20;50.70
29093;DHT22;16167;48.768;14.984;2023-05-02T15:19:17;16.10;49.70
29093;DHT22;16167;48.768;14.984;2023-05-02T15:21:45;16.10;51.80
29093;DHT22;16167;48.768;14.984;2023-05-02T15:24:14;16.20;51.10
29093;DHT22;16167;48.768;14.984;2023-05-02T15:26:42;16.10;49.70
29093;DHT22;16167;48.768;14.984;2023-05-02T15:29:12;16.10;49.70
29093;DHT22;16167;48.768;14.984;2023-05-02T15:31:40;16.10;50.40
29093;DHT22;16167;48.768;14.984;2023-05-02T15:34:08;16.00;49.90
29093;DHT22;16167;48.768;14.984;2023-05-02T15:36:36;16.00;49.90
29093;DHT22;16167;48.768;14.984;2023-05-02T15:39:04;15.90;50.00
29093;DHT22;16167;48.768;14.984;2023-05-02T15:41:35;15.90;50.50
29093;DHT22;16167;48.768;14.984;2023-05-02T15:44:03;15.90;50.60
29093;DHT22;16167;48.768;14.984;2023-05-02T15:46:32;15.80;51.00
29093;DHT22;16167;48.768;14.984;2023-05-02T15:49:00;15.80;51.40
29093;DHT22;16167;48.768;14.984;2023-05-02T15:51:28;15.80;49.70